createdAt,value
2022-12-28T00:02:13.385Z,-5.75
2022-12-28T00:04:40.904Z,-5.73
2022-12-28T00:07:08.432Z,-5.75
2022-12-28T00:09:36.114Z,-5.79
2022-12-28T00:12:03.662Z,-5.77
2022-12-28T00:14:31.267Z,-5.76
2022-12-28T00:16:58.863Z,-5.82
2022-12-28T00:19:26.365Z,-5.82
2022-12-28T00:21:54.488Z,-5.83
2022-12-28T00:24:24.679Z,-5.80
2022-12-28T00:26:52.587Z,-5.80
2022-12-28T00:29:20.435Z,-5.81
2022-12-28T00:31:47.982Z,-5.80
2022-12-28T00:34:16.030Z,-5.78
2022-12-28T00:37:09.320Z,-5.77
2022-12-28T00:39:31.202Z,-5.86
2022-12-28T00:41:58.670Z,-5.78
2022-12-28T00:44:26.134Z,-5.81
2022-12-28T00:46:53.607Z,-5.82
2022-12-28T00:49:21.103Z,-5.89
2022-12-28T00:51:48.628Z,-5.89
2022-12-28T00:54:16.117Z,-5.92
2022-12-28T00:56:43.610Z,-5.98
2022-12-28T00:59:11.400Z,-5.93
2022-12-28T01:01:39.696Z,-5.95
2022-12-28T01:04:07.353Z,-6.00
2022-12-28T01:06:34.838Z,-6.00
2022-12-28T01:09:02.492Z,-6.06
2022-12-28T01:11:31.453Z,-6.06
2022-12-28T01:14:01.918Z,-6.11
2022-12-28T01:16:32.662Z,-6.03
2022-12-28T01:19:03.013Z,-6.06
2022-12-28T01:21:33.788Z,-6.13
2022-12-28T01:24:04.129Z,-6.17
2022-12-28T01:26:33.184Z,-6.21
2022-12-28T01:29:00.851Z,-6.25
2022-12-28T01:31:29.178Z,-6.24
2022-12-28T01:33:56.834Z,-6.32
2022-12-28T01:36:31.745Z,-6.19
2022-12-28T01:39:17.660Z,-6.32
2022-12-28T01:42:22.251Z,-6.38
2022-12-28T01:44:51.314Z,-6.39
2022-12-28T01:47:34.173Z,-6.42
2022-12-28T01:50:11.974Z,-6.44
2022-12-28T01:52:50.597Z,-6.49
2022-12-28T01:55:22.247Z,-6.51
2022-12-28T01:57:58.603Z,-6.52
2022-12-28T02:00:27.189Z,-6.38
2022-12-28T02:03:04.207Z,-6.49
2022-12-28T02:05:39.030Z,-6.67
2022-12-28T02:08:16.942Z,-6.57
2022-12-28T02:10:46.469Z,-6.58
2022-12-28T02:13:18.257Z,-6.58
2022-12-28T02:15:46.924Z,-6.63
2022-12-28T02:18:16.371Z,-6.61
2022-12-28T02:21:05.071Z,-6.55
2022-12-28T02:24:02.084Z,-6.54
2022-12-28T02:26:55.327Z,-6.58
2022-12-28T02:29:30.176Z,-6.64
2022-12-28T02:32:22.532Z,-6.70
2022-12-28T02:35:28.477Z,-6.65
2022-12-28T02:38:05.942Z,-6.83
2022-12-28T02:40:40.056Z,-6.82
2022-12-28T02:43:07.795Z,-6.89
2022-12-28T02:46:00.006Z,-6.89
2022-12-28T02:48:46.216Z,-6.91
2022-12-28T02:51:41.989Z,-6.87
2022-12-28T02:54:49.879Z,-6.97
2022-12-28T02:57:51.277Z,-6.95
2022-12-28T03:00:21.152Z,-7.03
2022-12-28T03:02:51.510Z,-7.09
2022-12-28T03:06:05.553Z,-7.13
2022-12-28T03:08:39.837Z,-7.10
2022-12-28T03:11:16.032Z,-7.16
2022-12-28T03:13:56.786Z,-7.09
2022-12-28T03:16:55.007Z,-7.12
2022-12-28T03:19:48.937Z,-7.08
2022-12-28T03:22:36.313Z,-7.16
2022-12-28T03:25:28.855Z,-7.12
2022-12-28T03:28:17.499Z,-7.13
2022-12-28T03:31:06.427Z,-7.23
2022-12-28T03:33:40.362Z,-7.11
2022-12-28T03:36:13.347Z,-7.28
2022-12-28T03:39:04.373Z,-7.38
2022-12-28T03:42:12.195Z,-7.39
2022-12-28T03:44:44.630Z,-7.46
2022-12-28T03:47:14.232Z,-7.51
2022-12-28T03:49:42.504Z,-7.62
2022-12-28T03:52:12.534Z,-7.68
2022-12-28T03:54:41.443Z,-7.70
2022-12-28T03:57:10.809Z,-7.68
2022-12-28T03:59:42.628Z,-7.63
2022-12-28T04:02:10.396Z,-7.67
2022-12-28T04:04:38.039Z,-7.62
2022-12-28T04:07:05.827Z,-7.61
2022-12-28T04:09:33.369Z,-7.66
2022-12-28T04:12:01.603Z,-7.58
2022-12-28T04:14:49.291Z,-7.48
2022-12-28T04:17:16.926Z,-7.47
2022-12-28T04:19:45.126Z,-7.48
2022-12-28T04:22:13.167Z,-7.42
2022-12-28T04:24:40.919Z,-7.47
2022-12-28T04:27:08.509Z,-7.44
2022-12-28T04:29:37.202Z,-7.46
2022-12-28T04:32:19.499Z,-7.41
2022-12-28T04:34:48.978Z,-7.45
2022-12-28T04:37:19.118Z,-7.36
2022-12-28T04:39:56.472Z,-7.26
2022-12-28T04:42:26.179Z,-7.05
2022-12-28T04:44:53.688Z,-6.83
2022-12-28T04:47:21.374Z,-6.57
2022-12-28T04:49:48.934Z,-6.29
2022-12-28T04:52:16.497Z,-5.98
2022-12-28T04:54:44.041Z,-5.61
2022-12-28T04:57:11.636Z,-5.23
2022-12-28T04:59:40.814Z,-4.82
2022-12-28T05:02:08.784Z,-4.49
2022-12-28T05:04:36.605Z,-4.10
2022-12-28T05:07:04.274Z,-3.82
2022-12-28T05:09:31.913Z,-3.48
2022-12-28T05:11:59.633Z,-3.19
2022-12-28T05:14:29.852Z,-2.91
2022-12-28T05:17:00.128Z,-2.62
2022-12-28T05:19:28.345Z,-2.35
2022-12-28T05:21:56.318Z,-2.04
2022-12-28T05:28:14.703Z,-1.28
2022-12-28T05:30:42.462Z,-1.14
2022-12-28T05:33:10.105Z,-0.74
2022-12-28T05:35:37.797Z,-0.46
2022-12-28T05:38:05.983Z,-0.21
2022-12-28T05:40:34.203Z,-0.03
2022-12-28T05:43:02.146Z,0.16
2022-12-28T05:45:45.352Z,0.42
2022-12-28T05:48:13.106Z,0.51
2022-12-28T05:50:41.273Z,0.84
2022-12-28T05:53:08.946Z,1.02
2022-12-28T05:55:36.729Z,1.27
2022-12-28T05:58:05.904Z,1.54
2022-12-28T06:00:33.605Z,1.82
2022-12-28T06:03:01.421Z,1.96
2022-12-28T06:05:29.118Z,2.29
2022-12-28T06:07:56.976Z,2.59
2022-12-28T06:10:24.822Z,2.90
2022-12-28T06:12:52.539Z,3.20
2022-12-28T06:15:20.141Z,3.50
2022-12-28T06:17:47.801Z,3.82
2022-12-28T06:20:15.513Z,3.97
2022-12-28T06:22:43.217Z,4.17
2022-12-28T06:25:11.228Z,4.33
2022-12-28T06:27:38.979Z,4.47
2022-12-28T06:30:07.211Z,4.59
2022-12-28T06:32:34.924Z,4.79
2022-12-28T06:35:05.997Z,5.12
2022-12-28T06:37:33.798Z,5.35
2022-12-28T06:40:01.513Z,5.41
2022-12-28T06:42:47.811Z,5.77
2022-12-28T06:45:15.623Z,5.82
2022-12-28T06:47:45.360Z,6.08
2022-12-28T06:50:13.875Z,6.29
2022-12-28T06:52:41.642Z,6.49
2022-12-28T06:55:18.833Z,6.60
2022-12-28T06:57:47.901Z,6.79
2022-12-28T07:00:17.399Z,6.81
2022-12-28T07:02:45.151Z,6.90
2022-12-28T07:05:13.865Z,6.87
2022-12-28T07:07:41.521Z,6.98
2022-12-28T07:10:09.462Z,6.80
2022-12-28T07:12:47.074Z,6.82
2022-12-28T07:15:17.939Z,6.75
2022-12-28T07:17:46.131Z,6.67
2022-12-28T07:20:16.819Z,6.49
2022-12-28T07:22:45.960Z,6.21
2022-12-28T07:25:13.636Z,5.95
2022-12-28T07:27:41.316Z,5.43
2022-12-28T07:30:09.314Z,5.42
2022-12-28T07:32:38.081Z,5.10
2022-12-28T07:35:06.868Z,4.78
2022-12-28T07:37:34.485Z,4.39
2022-12-28T07:40:02.249Z,4.11
2022-12-28T07:42:32.084Z,3.70
2022-12-28T07:45:00.948Z,3.20
2022-12-28T07:47:31.775Z,2.99
2022-12-28T07:49:59.428Z,2.74
2022-12-28T07:52:27.075Z,2.32
2022-12-28T07:54:54.727Z,2.15
2022-12-28T07:57:22.481Z,1.88
2022-12-28T07:59:50.237Z,1.58
2022-12-28T08:02:18.006Z,1.36
2022-12-28T08:04:51.884Z,1.10
2022-12-28T08:07:20.162Z,1.00
2022-12-28T08:09:48.083Z,0.74
2022-12-28T08:12:15.998Z,0.57
2022-12-28T08:14:43.739Z,0.29
2022-12-28T08:17:14.902Z,0.18
2022-12-28T08:19:46.953Z,-0.15
2022-12-28T08:22:14.539Z,-0.19
2022-12-28T08:24:42.335Z,-0.40
2022-12-28T08:27:09.991Z,-0.48
2022-12-28T08:29:38.092Z,-0.61
2022-12-28T08:32:05.847Z,-0.75
2022-12-28T08:34:33.649Z,-0.83
2022-12-28T08:37:01.349Z,-1.09
2022-12-28T08:39:29.216Z,-1.21
2022-12-28T08:41:57.606Z,-1.27
2022-12-28T08:44:25.325Z,-1.43
2022-12-28T08:46:55.583Z,-1.27
2022-12-28T08:49:23.590Z,-1.46
2022-12-28T08:51:51.312Z,-1.64
2022-12-28T08:54:19.149Z,-1.69
2022-12-28T08:56:47.535Z,-1.74
2022-12-28T08:59:18.034Z,-1.69
2022-12-28T09:01:47.134Z,-1.82
2022-12-28T09:04:19.200Z,-1.82
2022-12-28T09:06:47.296Z,-1.98
2022-12-28T09:09:16.898Z,-2.09
2022-12-28T09:11:45.038Z,-2.08
2022-12-28T09:14:22.011Z,-2.04
2022-12-28T09:16:52.691Z,-2.13
2022-12-28T09:19:21.373Z,-2.16
2022-12-28T09:21:52.732Z,-2.20
2022-12-28T09:24:20.779Z,-2.25
2022-12-28T09:26:49.154Z,-2.36
2022-12-28T09:29:17.110Z,-2.27
2022-12-28T09:31:45.077Z,-2.35
2022-12-28T09:37:02.247Z,-2.33
2022-12-28T09:39:30.262Z,-2.36
2022-12-28T09:42:04.153Z,-2.27
2022-12-28T09:44:37.797Z,-2.10
2022-12-28T09:47:44.748Z,-2.15
2022-12-28T09:50:22.132Z,-2.23
2022-12-28T09:53:23.888Z,-2.18
2022-12-28T09:56:03.586Z,-2.34
2022-12-28T09:58:33.586Z,-2.34
2022-12-28T10:01:03.334Z,-2.34
2022-12-28T10:03:38.361Z,-2.23
2022-12-28T10:06:13.779Z,-2.41
2022-12-28T10:08:47.187Z,-2.33
2022-12-28T10:11:25.113Z,-2.45
2022-12-28T10:13:57.510Z,-2.37
2022-12-28T10:16:28.543Z,-2.52
2022-12-28T10:18:57.165Z,-2.39
2022-12-28T10:21:32.378Z,-2.55
2022-12-28T10:24:30.509Z,-2.41
2022-12-28T10:26:52.850Z,-2.47
2022-12-28T10:29:22.884Z,-2.63
2022-12-28T10:32:02.396Z,-2.52
2022-12-28T10:34:34.099Z,-2.82
2022-12-28T10:37:15.659Z,-2.71
2022-12-28T10:39:56.765Z,-2.68
2022-12-28T10:42:35.144Z,-2.90
2022-12-28T10:45:06.739Z,-3.02
2022-12-28T10:47:43.889Z,-3.13
2022-12-28T10:50:38.180Z,-3.06
2022-12-28T10:53:05.844Z,-2.98
2022-12-28T10:55:35.888Z,-3.21
2022-12-28T10:58:31.682Z,-3.14
2022-12-28T11:01:18.595Z,-3.24
2022-12-28T11:04:08.517Z,-3.42
2022-12-28T11:06:52.603Z,-3.50
2022-12-28T11:09:27.183Z,-3.61
2022-12-28T11:12:15.390Z,-3.91
2022-12-28T11:14:43.378Z,-4.02
2022-12-28T11:17:16.818Z,-3.91
2022-12-28T11:19:45.067Z,-4.00
2022-12-28T11:22:16.214Z,-4.01
2022-12-28T11:24:43.944Z,-3.99
2022-12-28T11:27:17.041Z,-4.04
2022-12-28T11:29:50.607Z,-4.01
2022-12-28T11:32:43.467Z,-3.98
2022-12-28T11:35:19.141Z,-3.93
2022-12-28T11:37:58.418Z,-3.96
2022-12-28T11:40:44.312Z,-3.95
2022-12-28T11:43:30.831Z,-3.96
2022-12-28T11:46:27.457Z,-3.96
2022-12-28T11:48:55.091Z,-4.15
2022-12-28T11:51:35.808Z,-4.12
2022-12-28T11:54:35.088Z,-4.11
2022-12-28T11:57:02.880Z,-4.28
2022-12-28T11:59:35.244Z,-4.22
2022-12-28T12:02:06.606Z,-4.26
2022-12-28T12:04:43.135Z,-4.32
2022-12-28T12:07:16.889Z,-4.21
2022-12-28T12:09:46.842Z,-4.27
2022-12-28T12:12:17.833Z,-4.29
2022-12-28T12:14:57.355Z,-4.33
2022-12-28T12:17:44.461Z,-4.32
2022-12-28T12:20:24.328Z,-4.39
2022-12-28T12:23:27.280Z,-4.22
2022-12-28T12:25:59.376Z,-4.32
2022-12-28T12:28:41.006Z,-4.36
2022-12-28T12:31:13.844Z,-4.44
2022-12-28T12:33:46.840Z,-4.33
2022-12-28T12:36:32.269Z,-4.28
2022-12-28T12:39:19.320Z,-4.31
2022-12-28T12:41:58.779Z,-4.38
2022-12-28T12:44:34.727Z,-4.37
2022-12-28T12:47:29.625Z,-4.25
2022-12-28T12:50:32.276Z,-4.28
2022-12-28T12:53:02.748Z,-4.13
2022-12-28T12:55:42.824Z,-4.26
2022-12-28T12:58:49.102Z,-4.33
2022-12-28T13:01:30.522Z,-4.26
2022-12-28T13:04:07.750Z,-4.30
2022-12-28T13:06:40.039Z,-4.50
2022-12-28T13:09:14.450Z,-4.39
2022-12-28T13:11:42.438Z,-4.47
2022-12-28T13:14:36.440Z,-4.30
2022-12-28T13:17:06.969Z,-4.39
2022-12-28T13:19:34.476Z,-4.40
2022-12-28T13:22:02.240Z,-4.43
2022-12-28T13:24:34.988Z,-4.40
2022-12-28T13:27:07.716Z,-4.42
2022-12-28T13:29:40.874Z,-4.48
2022-12-28T13:32:25.716Z,-4.42
2022-12-28T13:34:54.661Z,-4.54
2022-12-28T13:37:22.776Z,-4.53
2022-12-28T13:39:50.682Z,-4.54
2022-12-28T13:42:32.281Z,-4.68
2022-12-28T13:45:03.498Z,-4.56
2022-12-28T13:47:44.864Z,-4.62
2022-12-28T13:50:26.153Z,-4.60
2022-12-28T13:52:59.955Z,-4.65
2022-12-28T13:55:32.540Z,-4.68
2022-12-28T13:58:04.500Z,-4.70
2022-12-28T14:00:35.258Z,-4.75
2022-12-28T14:03:07.164Z,-4.86
2022-12-28T14:05:34.763Z,-4.85
2022-12-28T14:08:05.906Z,-5.11
2022-12-28T14:10:33.956Z,-5.01
2022-12-28T14:13:03.033Z,-4.95
2022-12-28T14:15:37.266Z,-4.98
2022-12-28T14:18:08.992Z,-4.97
2022-12-28T14:20:54.835Z,-4.88
2022-12-28T14:23:25.465Z,-5.01
2022-12-28T14:25:54.308Z,-4.98
2022-12-28T14:28:35.376Z,-4.89
2022-12-28T14:31:05.006Z,-4.98
2022-12-28T14:33:36.731Z,-4.90
2022-12-28T14:36:07.701Z,-4.87
2022-12-28T14:38:40.411Z,-4.87
2022-12-28T14:41:17.394Z,-4.92
2022-12-28T14:43:53.701Z,-5.08
2022-12-28T14:46:41.609Z,-4.99
2022-12-28T14:49:31.109Z,-4.82
2022-12-28T14:52:19.039Z,-4.89
2022-12-28T14:54:54.222Z,-4.97
2022-12-28T14:57:44.438Z,-5.05
2022-12-28T15:00:23.966Z,-4.92
2022-12-28T15:02:52.426Z,-5.08
2022-12-28T15:05:54.774Z,-4.90
2022-12-28T15:08:27.604Z,-4.99
2022-12-28T15:11:00.344Z,-4.99
2022-12-28T15:13:27.982Z,-4.97
2022-12-28T15:15:58.226Z,-4.91
2022-12-28T15:18:27.549Z,-4.89
2022-12-28T15:20:55.529Z,-4.86
2022-12-28T15:23:23.978Z,-4.93
2022-12-28T15:25:51.639Z,-4.94
2022-12-28T15:28:19.212Z,-4.87
2022-12-28T15:30:46.844Z,-4.88
2022-12-28T15:33:16.915Z,-4.85
2022-12-28T15:35:44.663Z,-4.86
2022-12-28T15:38:15.399Z,-4.88
2022-12-28T15:40:43.306Z,-4.86
2022-12-28T15:43:10.944Z,-4.84
2022-12-28T15:45:38.590Z,-4.92
2022-12-28T15:48:06.621Z,-4.96
2022-12-28T15:50:34.126Z,-5.03
2022-12-28T15:53:01.757Z,-4.99
2022-12-28T15:55:30.623Z,-4.97
2022-12-28T15:57:58.228Z,-4.94
2022-12-28T16:00:26.110Z,-4.93
2022-12-28T16:02:55.714Z,-5.01
2022-12-28T16:05:23.682Z,-5.04
2022-12-28T16:07:51.414Z,-5.00
2022-12-28T16:10:19.464Z,-4.97
2022-12-28T16:12:47.190Z,-5.00
2022-12-28T16:15:14.748Z,-4.99
2022-12-28T16:17:52.871Z,-4.99
2022-12-28T16:20:23.396Z,-4.91
2022-12-28T16:22:50.974Z,-4.93
2022-12-28T16:25:18.626Z,-4.97
2022-12-28T16:27:48.047Z,-4.95
2022-12-28T16:30:15.773Z,-5.03
2022-12-28T16:32:49.796Z,-4.98
2022-12-28T16:35:22.950Z,-4.97
2022-12-28T16:37:52.925Z,-4.90
2022-12-28T16:40:20.683Z,-4.96
2022-12-28T16:42:48.507Z,-5.03
2022-12-28T16:45:16.323Z,-5.05
2022-12-28T16:47:45.040Z,-5.05
2022-12-28T16:50:16.407Z,-5.17
2022-12-28T16:52:44.225Z,-5.02
2022-12-28T16:55:13.017Z,-5.18
2022-12-28T16:57:43.795Z,-5.05
2022-12-28T17:00:12.729Z,-5.05
2022-12-28T17:02:59.680Z,-5.27
2022-12-28T17:05:29.383Z,-5.22
2022-12-28T17:08:11.151Z,-5.18
2022-12-28T17:10:47.171Z,-5.10
2022-12-28T17:13:16.819Z,-5.09
2022-12-28T17:15:53.454Z,-5.05
2022-12-28T17:18:23.955Z,-5.06
2022-12-28T17:20:54.108Z,-5.13
2022-12-28T17:23:28.823Z,-4.99
2022-12-28T17:26:11.676Z,-5.05
2022-12-28T17:28:46.532Z,-5.07
2022-12-28T17:31:18.410Z,-4.92
2022-12-28T17:33:51.532Z,-4.94
2022-12-28T17:39:22.344Z,-5.01
2022-12-28T17:41:53.924Z,-4.97
2022-12-28T17:44:49.151Z,-4.94
2022-12-28T17:48:14.992Z,-4.89
2022-12-28T17:50:56.520Z,-5.14
2022-12-28T17:53:26.370Z,-5.05
2022-12-28T17:56:13.585Z,-5.22
2022-12-28T17:58:44.859Z,-5.08
2022-12-28T18:01:14.320Z,-5.12
2022-12-28T18:03:44.428Z,-5.34
2022-12-28T18:06:24.708Z,-5.15
2022-12-28T18:08:54.496Z,-5.19
2022-12-28T18:11:32.654Z,-5.15
2022-12-28T18:14:12.133Z,-5.16
2022-12-28T18:16:43.007Z,-5.16
2022-12-28T18:19:13.806Z,-5.17
2022-12-28T18:22:02.527Z,-5.22
2022-12-28T18:24:37.003Z,-5.03
2022-12-28T18:27:09.096Z,-5.26
2022-12-28T18:29:41.791Z,-5.25
2022-12-28T18:32:13.960Z,-5.37
2022-12-28T18:34:44.833Z,-5.34
2022-12-28T18:37:17.912Z,-5.40
2022-12-28T18:39:55.244Z,-5.33
2022-12-28T18:42:42.271Z,-5.30
2022-12-28T18:45:15.467Z,-5.38
2022-12-28T18:47:47.607Z,-5.34
2022-12-28T18:50:18.056Z,-5.29
2022-12-28T18:52:48.805Z,-5.34
2022-12-28T18:55:18.554Z,-5.37
2022-12-28T18:57:49.253Z,-5.30
2022-12-28T19:00:24.901Z,-5.32
2022-12-28T19:02:56.049Z,-5.41
2022-12-28T19:05:44.057Z,-5.39
2022-12-28T19:08:19.134Z,-5.39
2022-12-28T19:11:04.241Z,-5.36
2022-12-28T19:13:45.000Z,-5.32
2022-12-28T19:16:16.652Z,-5.39
2022-12-28T19:18:47.443Z,-5.60
2022-12-28T19:21:29.550Z,-5.41
2022-12-28T19:24:10.325Z,-5.63
2022-12-28T19:26:41.986Z,-5.40
2022-12-28T19:29:39.194Z,-5.43
2022-12-28T19:32:13.360Z,-5.47
2022-12-28T19:34:44.190Z,-5.50
2022-12-28T19:37:20.087Z,-5.51
2022-12-28T19:39:56.129Z,-5.60
2022-12-28T19:42:33.189Z,-5.61
2022-12-28T19:45:06.440Z,-5.63
2022-12-28T19:47:43.327Z,-5.66
2022-12-28T19:50:17.715Z,-5.75
2022-12-28T19:52:50.275Z,-5.75
2022-12-28T19:58:27.264Z,-5.70
2022-12-28T20:01:05.607Z,-5.77
2022-12-28T20:03:35.174Z,-6.00
2022-12-28T20:06:11.265Z,-5.69
2022-12-28T20:08:48.533Z,-5.76
2022-12-28T20:11:24.316Z,-5.72
2022-12-28T20:14:03.112Z,-5.72
2022-12-28T20:16:35.097Z,-5.96
2022-12-28T20:19:11.207Z,-5.77
2022-12-28T20:21:43.609Z,-5.73
2022-12-28T20:24:15.355Z,-5.78
2022-12-28T20:26:45.001Z,-5.64
2022-12-28T20:29:18.928Z,-5.59
2022-12-28T20:31:57.309Z,-5.55
2022-12-28T20:34:32.778Z,-5.55
2022-12-28T20:37:11.088Z,-5.59
2022-12-28T20:39:50.025Z,-5.78
2022-12-28T20:42:45.649Z,-5.63
2022-12-28T20:45:15.960Z,-5.56
2022-12-28T20:48:03.121Z,-5.59
2022-12-28T20:50:33.286Z,-5.68
2022-12-28T20:53:38.505Z,-5.74
2022-12-28T20:56:25.373Z,-5.83
2022-12-28T20:59:05.733Z,-5.85
2022-12-28T21:01:34.218Z,-5.96
2022-12-28T21:04:08.681Z,-6.01
2022-12-28T21:06:43.234Z,-6.26
2022-12-28T21:09:14.196Z,-6.20
2022-12-28T21:14:27.632Z,-6.18
2022-12-28T21:16:59.295Z,-6.26
2022-12-28T21:19:40.302Z,-6.20
2022-12-28T21:22:16.510Z,-6.31
2022-12-28T21:24:45.415Z,-6.34
2022-12-28T21:27:13.711Z,-6.34
2022-12-28T21:29:49.465Z,-6.40
2022-12-28T21:35:05.646Z,-6.30
2022-12-28T21:37:36.640Z,-6.30
2022-12-28T21:40:17.646Z,-6.31
2022-12-28T21:42:53.978Z,-6.38
2022-12-28T21:45:28.492Z,-6.40
2022-12-28T21:48:07.266Z,-6.55
2022-12-28T21:50:41.499Z,-6.57
2022-12-28T21:56:00.206Z,-6.44
2022-12-28T21:58:31.924Z,-6.45
2022-12-28T22:01:41.922Z,-6.56
2022-12-28T22:04:37.665Z,-6.52
2022-12-28T22:07:23.226Z,-6.59
2022-12-28T22:10:16.591Z,-6.57
2022-12-28T22:12:47.964Z,-6.53
2022-12-28T22:15:40.781Z,-6.48
2022-12-28T22:18:53.227Z,-6.39
2022-12-28T22:21:20.288Z,-6.42
2022-12-28T22:23:54.340Z,-6.43
2022-12-28T22:26:29.535Z,-6.47
2022-12-28T22:29:23.361Z,-6.35
2022-12-28T22:32:07.339Z,-6.43
2022-12-28T22:34:38.558Z,-6.26
2022-12-28T22:37:08.588Z,-6.29
2022-12-28T22:39:37.550Z,-6.37
2022-12-28T22:42:10.743Z,-6.23
2022-12-28T22:44:42.163Z,-6.02
2022-12-28T22:47:27.132Z,-6.13
2022-12-28T22:50:06.632Z,-6.11
2022-12-28T22:53:02.830Z,-6.11
2022-12-28T22:55:43.301Z,-6.06
2022-12-28T23:04:36.108Z,-5.99
2022-12-28T23:07:06.684Z,-6.16
2022-12-28T23:09:36.983Z,-6.11
2022-12-28T23:12:14.344Z,-6.08
2022-12-28T23:15:10.918Z,-6.23
2022-12-28T23:17:41.211Z,-6.27
2022-12-28T23:20:31.357Z,-6.14
2022-12-28T23:23:27.965Z,-6.16
2022-12-28T23:26:24.584Z,-6.29
2022-12-28T23:29:11.572Z,-6.34
2022-12-28T23:31:45.811Z,-6.62
2022-12-28T23:34:17.339Z,-6.72
2022-12-28T23:36:53.741Z,-6.82
2022-12-28T23:39:24.184Z,-6.99
2022-12-28T23:41:53.114Z,-6.97
2022-12-28T23:44:29.917Z,-7.07
2022-12-28T23:47:17.194Z,-7.13
2022-12-28T23:49:52.250Z,-7.18
2022-12-28T23:52:25.790Z,-7.28
2022-12-28T23:55:04.970Z,-7.21
2022-12-28T23:57:48.971Z,-7.41
